createdAt,value
2022-09-24T00:01:20.348Z,13.26
2022-09-24T00:04:28.595Z,13.26
2022-09-24T00:07:32.703Z,13.19
2022-09-24T00:10:40.082Z,13.23
2022-09-24T00:13:44.156Z,13.17
2022-09-24T00:16:48.574Z,13.15
2022-09-24T00:19:54.010Z,13.23
2022-09-24T00:22:58.144Z,13.20
2022-09-24T00:26:20.422Z,13.19
2022-09-24T00:29:26.691Z,13.23
2022-09-24T00:32:30.787Z,13.19
2022-09-24T00:35:37.250Z,13.17
2022-09-24T00:38:41.646Z,13.19
2022-09-24T00:41:49.216Z,13.21
2022-09-24T00:44:56.148Z,13.23
2022-09-24T00:48:00.531Z,13.18
2022-09-24T00:51:06.682Z,13.21
2022-09-24T00:54:16.112Z,13.20
2022-09-24T00:57:20.331Z,13.21
2022-09-24T01:00:24.931Z,13.22
2022-09-24T01:03:29.711Z,13.18
2022-09-24T01:06:35.543Z,13.21
2022-09-24T01:09:39.722Z,13.18
2022-09-24T01:12:50.814Z,13.21
2022-09-24T01:16:02.333Z,13.15
2022-09-24T01:19:19.651Z,13.16
2022-09-24T01:22:38.292Z,13.22
2022-09-24T01:25:49.036Z,13.20
2022-09-24T01:29:10.722Z,13.15
2022-09-24T01:32:23.167Z,13.13
2022-09-24T01:35:32.513Z,13.12
2022-09-24T01:38:41.988Z,13.07
2022-09-24T01:41:47.217Z,13.08
2022-09-24T01:44:52.305Z,13.10
2022-09-24T01:47:57.803Z,12.91
2022-09-24T01:51:08.458Z,13.06
2022-09-24T01:54:19.920Z,13.07
2022-09-24T01:57:26.551Z,13.04
2022-09-24T02:00:32.499Z,12.93
2022-09-24T02:03:46.942Z,13.01
2022-09-24T02:06:56.289Z,12.98
2022-09-24T02:10:00.720Z,13.02
2022-09-24T02:13:08.762Z,13.07
2022-09-24T02:16:16.369Z,13.07
2022-09-24T02:19:26.294Z,13.09
2022-09-24T02:22:32.141Z,13.12
2022-09-24T02:25:43.199Z,13.09
2022-09-24T02:28:47.377Z,13.08
2022-09-24T02:31:54.153Z,13.07
2022-09-24T02:35:02.783Z,13.14
2022-09-24T02:38:07.004Z,13.10
2022-09-24T02:41:12.156Z,13.13
2022-09-24T02:44:16.591Z,13.06
2022-09-24T02:47:21.281Z,13.09
2022-09-24T02:50:26.882Z,13.09
2022-09-24T02:53:30.960Z,13.09
2022-09-24T02:56:35.131Z,13.11
2022-09-24T02:59:39.436Z,13.11
2022-09-24T03:02:43.722Z,13.11
2022-09-24T03:05:49.342Z,13.08
2022-09-24T03:08:54.303Z,13.10
2022-09-24T03:12:01.018Z,13.10
2022-09-24T03:15:06.105Z,13.11
2022-09-24T03:18:13.695Z,13.09
2022-09-24T03:21:21.835Z,13.11
2022-09-24T03:24:25.967Z,13.02
2022-09-24T03:27:30.132Z,12.97
2022-09-24T03:31:06.334Z,13.04
2022-09-24T03:34:12.062Z,13.10
2022-09-24T03:37:17.845Z,13.05
2022-09-24T03:40:22.642Z,13.03
2022-09-24T03:43:27.463Z,13.02
2022-09-24T03:46:31.479Z,13.00
2022-09-24T03:49:35.923Z,13.02
2022-09-24T03:52:41.812Z,13.04
2022-09-24T03:55:46.787Z,13.07
2022-09-24T03:58:50.867Z,13.02
2022-09-24T04:01:55.357Z,13.05
2022-09-24T04:04:59.478Z,13.00
2022-09-24T04:08:06.250Z,13.00
2022-09-24T04:11:12.033Z,13.04
2022-09-24T04:14:16.493Z,13.06
2022-09-24T04:17:20.511Z,13.08
2022-09-24T04:20:27.105Z,13.07
2022-09-24T04:23:32.650Z,13.08
2022-09-24T04:26:36.959Z,13.08
2022-09-24T04:29:41.229Z,13.07
2022-09-24T04:32:45.363Z,13.08
2022-09-24T04:35:49.736Z,13.11
2022-09-24T04:38:56.815Z,13.10
2022-09-24T04:42:00.872Z,13.13
2022-09-24T04:45:06.044Z,13.14
2022-09-24T04:48:13.128Z,13.12
2022-09-24T04:51:19.463Z,13.14
2022-09-24T04:54:25.443Z,13.11
2022-09-24T04:57:33.054Z,13.10
2022-09-24T05:00:37.280Z,13.11
2022-09-24T05:03:41.472Z,13.13
2022-09-24T05:06:45.582Z,13.14
2022-09-24T05:09:51.086Z,13.08
2022-09-24T05:12:55.197Z,13.09
2022-09-24T05:16:01.032Z,13.11
2022-09-24T05:19:05.608Z,13.16
2022-09-24T05:22:11.548Z,13.17
2022-09-24T05:25:19.362Z,13.19
2022-09-24T05:28:22.874Z,13.21
2022-09-24T05:31:27.276Z,13.23
2022-09-24T05:34:31.370Z,13.28
2022-09-24T05:37:35.755Z,13.26
2022-09-24T05:40:50.420Z,13.28
2022-09-24T05:43:58.271Z,13.31
2022-09-24T05:47:02.363Z,13.31
2022-09-24T05:50:08.314Z,13.30
2022-09-24T05:53:15.573Z,13.36
2022-09-24T05:56:21.226Z,13.33
2022-09-24T05:59:25.657Z,13.44
2022-09-24T06:02:29.687Z,13.49
2022-09-24T06:05:34.313Z,13.52
2022-09-24T06:08:38.944Z,13.56
2022-09-24T06:11:44.439Z,13.57
2022-09-24T06:14:48.471Z,13.60
2022-09-24T06:17:55.680Z,13.59
2022-09-24T06:21:03.936Z,13.59
2022-09-24T06:24:08.393Z,13.63
2022-09-24T06:27:13.854Z,13.64
2022-09-24T06:30:18.575Z,13.70
2022-09-24T06:33:23.434Z,13.74
2022-09-24T06:36:27.653Z,13.80
2022-09-24T06:39:31.669Z,13.85
2022-09-24T06:42:37.939Z,13.88
2022-09-24T06:45:43.066Z,13.92
2022-09-24T06:48:50.210Z,13.92
2022-09-24T06:51:56.044Z,13.93
2022-09-24T06:55:00.415Z,13.98
2022-09-24T06:58:08.650Z,14.01
2022-09-24T07:01:12.806Z,14.05
2022-09-24T07:04:16.903Z,14.11
2022-09-24T07:07:34.306Z,14.12
2022-09-24T07:10:39.730Z,14.15
2022-09-24T07:13:45.263Z,14.23
2022-09-24T07:16:49.472Z,14.29
2022-09-24T07:19:54.149Z,14.32
2022-09-24T07:22:58.756Z,14.42
2022-09-24T07:26:02.872Z,14.46
2022-09-24T07:29:08.435Z,14.54
2022-09-24T07:32:17.863Z,14.60
2022-09-24T07:35:22.050Z,14.65
2022-09-24T07:38:27.052Z,14.73
2022-09-24T07:41:31.773Z,14.77
2022-09-24T07:44:38.366Z,14.85
2022-09-24T07:47:42.467Z,14.95
2022-09-24T07:50:46.831Z,15.02
2022-09-24T07:53:51.158Z,15.08
2022-09-24T07:56:55.359Z,15.15
2022-09-24T08:00:00.832Z,15.17
2022-09-24T08:03:06.316Z,15.21
2022-09-24T08:06:11.651Z,15.26
2022-09-24T08:09:17.574Z,15.29
2022-09-24T08:12:21.654Z,15.37
2022-09-24T08:15:28.344Z,15.43
2022-09-24T08:18:33.868Z,15.44
2022-09-24T08:21:40.251Z,15.48
2022-09-24T08:24:44.458Z,15.54
2022-09-24T08:27:48.648Z,15.58
2022-09-24T08:30:54.240Z,15.58
2022-09-24T08:33:59.306Z,15.62
2022-09-24T08:37:04.062Z,15.67
2022-09-24T08:40:10.805Z,15.69
2022-09-24T08:43:29.437Z,15.70
2022-09-24T08:46:57.897Z,15.76
2022-09-24T08:50:15.410Z,15.76
2022-09-24T08:53:24.896Z,15.71
2022-09-24T08:56:32.546Z,15.77
2022-09-24T08:59:37.752Z,15.77
2022-09-24T09:02:49.496Z,15.79
2022-09-24T09:05:56.842Z,15.78
2022-09-24T09:09:07.771Z,15.70
2022-09-24T09:12:18.107Z,15.77
2022-09-24T09:15:25.913Z,15.76
2022-09-24T09:18:37.444Z,15.72
2022-09-24T09:21:45.117Z,15.79
2022-09-24T09:24:51.336Z,15.76
2022-09-24T09:28:01.869Z,15.74
2022-09-24T09:31:11.654Z,15.81
2022-09-24T09:34:37.563Z,15.81
2022-09-24T09:37:45.865Z,15.87
2022-09-24T09:40:56.620Z,15.89
2022-09-24T09:44:04.133Z,15.90
2022-09-24T09:47:36.134Z,15.91
2022-09-24T09:50:45.956Z,15.99
2022-09-24T09:53:58.224Z,16.06
2022-09-24T09:57:04.339Z,16.11
2022-09-24T10:00:18.938Z,16.16
2022-09-24T10:03:26.137Z,16.27
2022-09-24T10:06:33.664Z,16.33
2022-09-24T10:09:38.663Z,16.33
2022-09-24T10:12:42.769Z,16.40
2022-09-24T10:15:52.322Z,16.50
2022-09-24T10:18:56.621Z,16.55
2022-09-24T10:22:10.935Z,16.53
2022-09-24T10:25:20.811Z,16.54
2022-09-24T10:28:43.532Z,16.54
2022-09-24T10:31:48.962Z,16.59
2022-09-24T10:34:57.719Z,16.56
2022-09-24T10:38:14.943Z,16.57
2022-09-24T10:41:28.012Z,16.52
2022-09-24T10:44:38.532Z,16.61
2022-09-24T10:47:47.682Z,16.66
2022-09-24T10:50:58.952Z,16.68
2022-09-24T10:54:23.039Z,16.80
2022-09-24T10:57:33.234Z,16.84
2022-09-24T11:00:41.649Z,16.97
2022-09-24T11:04:23.570Z,17.04
2022-09-24T11:07:46.751Z,17.10
2022-09-24T11:11:18.094Z,17.15
2022-09-24T11:14:37.613Z,17.21
2022-09-24T11:17:52.064Z,17.20
2022-09-24T11:21:02.861Z,17.16
2022-09-24T11:24:30.190Z,17.24
2022-09-24T11:27:49.968Z,17.33
2022-09-24T11:31:03.226Z,17.43
2022-09-24T11:34:36.958Z,17.45
2022-09-24T11:37:53.007Z,17.50
2022-09-24T11:41:11.894Z,17.47
2022-09-24T11:45:12.331Z,17.39
2022-09-24T11:49:00.136Z,17.48
2022-09-24T11:52:09.696Z,17.53
2022-09-24T11:55:18.809Z,17.50
2022-09-24T11:58:27.991Z,17.52
2022-09-24T12:01:37.233Z,17.52
2022-09-24T12:04:56.046Z,17.54
2022-09-24T12:08:04.715Z,17.49
2022-09-24T12:11:15.288Z,17.36
2022-09-24T12:14:23.149Z,17.30
2022-09-24T12:17:34.173Z,17.33
2022-09-24T12:20:48.318Z,17.30
2022-09-24T12:24:02.252Z,17.22
2022-09-24T12:27:12.848Z,17.18
2022-09-24T12:30:50.056Z,17.14
2022-09-24T12:34:01.532Z,17.15
2022-09-24T12:37:09.882Z,17.09
2022-09-24T12:40:41.578Z,17.07
2022-09-24T12:43:50.099Z,17.10
2022-09-24T12:46:56.532Z,17.10
2022-09-24T12:50:05.341Z,17.11
2022-09-24T12:53:24.695Z,17.16
2022-09-24T12:56:30.987Z,17.10
2022-09-24T12:59:35.363Z,17.14
2022-09-24T13:02:47.544Z,17.12
2022-09-24T13:05:53.295Z,17.24
2022-09-24T13:08:57.571Z,17.28
2022-09-24T13:12:22.252Z,17.40
2022-09-24T13:15:35.820Z,17.42
2022-09-24T13:18:40.207Z,17.45
2022-09-24T13:21:55.615Z,17.48
2022-09-24T13:25:29.907Z,17.54
2022-09-24T13:28:42.615Z,17.55
2022-09-24T13:31:52.660Z,17.57
2022-09-24T13:34:56.840Z,17.52
2022-09-24T13:38:08.214Z,17.56
2022-09-24T13:41:25.743Z,17.53
2022-09-24T13:44:32.721Z,17.59
2022-09-24T13:47:42.612Z,17.58
2022-09-24T13:50:51.442Z,17.58
2022-09-24T13:54:04.993Z,17.59
2022-09-24T13:57:14.426Z,17.59
2022-09-24T14:00:21.544Z,17.55
2022-09-24T14:03:29.979Z,17.58
2022-09-24T14:06:37.255Z,17.66
2022-09-24T14:09:44.744Z,17.54
2022-09-24T14:12:48.910Z,17.60
2022-09-24T14:15:58.397Z,17.61
2022-09-24T14:19:04.301Z,17.59
2022-09-24T14:22:17.628Z,17.58
2022-09-24T14:25:28.661Z,17.50
2022-09-24T14:28:34.279Z,17.58
2022-09-24T14:31:48.730Z,17.52
2022-09-24T14:34:55.674Z,17.46
2022-09-24T14:38:06.217Z,17.48
2022-09-24T14:41:19.315Z,17.40
2022-09-24T14:44:25.818Z,17.32
2022-09-24T14:47:32.920Z,17.25
2022-09-24T14:50:40.578Z,17.22
2022-09-24T14:53:44.718Z,17.15
2022-09-24T14:56:50.218Z,17.13
2022-09-24T14:59:54.813Z,17.09
2022-09-24T15:03:01.461Z,17.05
2022-09-24T15:06:18.750Z,16.95
2022-09-24T15:09:26.970Z,16.90
2022-09-24T15:12:34.873Z,16.93
2022-09-24T15:15:40.015Z,16.87
2022-09-24T15:18:44.333Z,16.85
2022-09-24T15:21:49.751Z,16.78
2022-09-24T15:25:00.265Z,16.73
2022-09-24T15:28:06.983Z,16.63
2022-09-24T15:31:11.374Z,16.65
2022-09-24T15:34:19.759Z,16.60
2022-09-24T15:37:27.127Z,16.60
2022-09-24T15:40:35.610Z,16.56
2022-09-24T15:43:41.790Z,16.38
2022-09-24T15:46:48.051Z,16.36
2022-09-24T15:49:52.579Z,16.32
2022-09-24T15:52:59.681Z,16.26
2022-09-24T15:56:04.967Z,16.20
2022-09-24T15:59:15.499Z,16.15
2022-09-24T16:02:23.162Z,16.21
2022-09-24T16:05:27.554Z,16.12
2022-09-24T16:08:31.632Z,16.15
2022-09-24T16:11:35.867Z,16.13
2022-09-24T16:14:41.933Z,16.06
2022-09-24T16:17:46.440Z,15.99
2022-09-24T16:20:50.986Z,15.95
2022-09-24T16:23:56.083Z,15.96
2022-09-24T16:27:01.209Z,15.92
2022-09-24T16:30:08.685Z,15.84
2022-09-24T16:33:18.637Z,15.78
2022-09-24T16:36:23.867Z,15.78
2022-09-24T16:39:28.340Z,15.70
2022-09-24T16:42:32.447Z,15.62
2022-09-24T16:45:38.370Z,15.65
2022-09-24T16:48:44.328Z,15.55
2022-09-24T16:51:48.528Z,15.49
2022-09-24T16:54:52.808Z,15.54
2022-09-24T16:57:57.147Z,15.52
2022-09-24T17:01:06.151Z,15.49
2022-09-24T17:04:12.024Z,15.45
2022-09-24T17:07:16.045Z,15.42
2022-09-24T17:10:23.651Z,15.39
2022-09-24T17:13:27.758Z,15.35
2022-09-24T17:16:33.848Z,15.42
2022-09-24T17:19:37.883Z,15.29
2022-09-24T17:22:42.289Z,15.32
2022-09-24T17:25:46.497Z,15.28
2022-09-24T17:28:54.152Z,15.23
2022-09-24T17:31:59.704Z,15.16
2022-09-24T17:35:03.805Z,15.07
2022-09-24T17:38:08.251Z,15.04
2022-09-24T17:41:15.093Z,14.97
2022-09-24T17:44:19.298Z,14.98
2022-09-24T17:47:44.778Z,14.90
2022-09-24T17:50:55.484Z,14.88
2022-09-24T17:54:02.045Z,14.85
2022-09-24T17:57:06.180Z,14.76
2022-09-24T18:00:12.551Z,14.80
2022-09-24T18:03:19.658Z,14.71
2022-09-24T18:06:28.144Z,14.71
2022-09-24T18:09:34.661Z,14.68
2022-09-24T18:12:38.714Z,14.68
2022-09-24T18:15:42.856Z,14.65
2022-09-24T18:18:50.353Z,14.65
2022-09-24T18:21:56.141Z,14.63
2022-09-24T18:25:01.772Z,14.56
2022-09-24T18:28:05.976Z,14.58
2022-09-24T18:31:12.004Z,14.51
2022-09-24T18:34:17.830Z,14.48
2022-09-24T18:37:21.943Z,14.49
2022-09-24T18:40:26.217Z,14.44
2022-09-24T18:43:31.274Z,14.47
2022-09-24T18:46:35.740Z,14.41
2022-09-24T18:49:41.545Z,14.38
2022-09-24T18:52:45.651Z,14.41
2022-09-24T18:55:49.980Z,14.39
2022-09-24T18:58:58.083Z,14.39
2022-09-24T19:02:02.631Z,14.34
2022-09-24T19:05:10.707Z,14.38
2022-09-24T19:08:15.510Z,14.38
2022-09-24T19:11:19.890Z,14.38
2022-09-24T19:14:25.113Z,14.34
2022-09-24T19:17:29.422Z,14.32
2022-09-24T19:20:38.138Z,14.30
2022-09-24T19:23:44.506Z,14.28
2022-09-24T19:26:49.539Z,14.27
2022-09-24T19:29:54.080Z,14.23
2022-09-24T19:32:59.908Z,14.20
2022-09-24T19:36:05.825Z,14.24
2022-09-24T19:39:13.231Z,14.25
2022-09-24T19:42:17.485Z,14.24
2022-09-24T19:45:21.974Z,14.16
2022-09-24T19:48:26.735Z,14.16
2022-09-24T19:51:33.729Z,14.11
2022-09-24T19:54:37.777Z,14.06
2022-09-24T19:57:42.246Z,14.07
2022-09-24T20:00:46.297Z,14.10
2022-09-24T20:03:52.395Z,14.14
2022-09-24T20:07:02.336Z,14.13
2022-09-24T20:10:11.305Z,14.06
2022-09-24T20:13:17.929Z,14.04
2022-09-24T20:16:26.472Z,14.02
2022-09-24T20:19:30.720Z,14.04
2022-09-24T20:22:36.611Z,13.99
2022-09-24T20:25:57.933Z,13.97
2022-09-24T20:29:02.629Z,14.00
2022-09-24T20:32:06.786Z,13.97
2022-09-24T20:35:11.720Z,13.90
2022-09-24T20:38:17.158Z,13.88
2022-09-24T20:41:24.194Z,13.85
2022-09-24T20:44:28.351Z,13.83
2022-09-24T20:47:32.853Z,13.80
2022-09-24T20:50:36.990Z,13.72
2022-09-24T20:53:42.875Z,13.75
2022-09-24T20:56:47.148Z,13.77
2022-09-24T20:59:51.792Z,13.80
2022-09-24T21:02:56.219Z,13.72
2022-09-24T21:06:04.739Z,13.75
2022-09-24T21:09:10.378Z,13.77
2022-09-24T21:12:14.728Z,13.78
2022-09-24T21:15:18.869Z,13.75
2022-09-24T21:18:29.082Z,13.77
2022-09-24T21:21:41.865Z,13.72
2022-09-24T21:24:47.591Z,13.67
2022-09-24T21:27:51.578Z,13.68
2022-09-24T21:31:03.378Z,13.63
2022-09-24T21:34:08.387Z,13.59
2022-09-24T21:37:14.564Z,13.59
2022-09-24T21:40:20.162Z,13.61
2022-09-24T21:43:28.700Z,13.53
2022-09-24T21:46:37.102Z,13.57
2022-09-24T21:49:41.776Z,13.53
2022-09-24T21:52:45.963Z,13.49
2022-09-24T21:55:51.499Z,13.46
2022-09-24T21:58:56.321Z,13.44
2022-09-24T22:02:01.006Z,13.39
2022-09-24T22:05:06.031Z,13.38
2022-09-24T22:08:13.077Z,13.32
2022-09-24T22:11:19.395Z,13.34
2022-09-24T22:14:23.815Z,13.31
2022-09-24T22:17:28.415Z,13.39
2022-09-24T22:20:33.112Z,13.39
2022-09-24T22:23:39.092Z,13.36
2022-09-24T22:26:46.183Z,13.32
2022-09-24T22:29:50.230Z,13.34
2022-09-24T22:32:54.460Z,13.28
2022-09-24T22:35:57.808Z,13.22
2022-09-24T22:39:03.180Z,13.23
2022-09-24T22:42:08.865Z,13.28
2022-09-24T22:45:13.521Z,13.31
2022-09-24T22:48:17.708Z,13.30
2022-09-24T22:51:22.801Z,13.29
2022-09-24T22:54:26.991Z,13.30
2022-09-24T22:57:34.582Z,13.23
2022-09-24T23:00:39.018Z,13.20
2022-09-24T23:03:44.234Z,13.18
2022-09-24T23:06:48.365Z,13.15
2022-09-24T23:09:52.442Z,13.15
2022-09-24T23:12:58.372Z,13.17
2022-09-24T23:16:14.095Z,13.18
2022-09-24T23:19:20.342Z,13.14
2022-09-24T23:22:24.958Z,13.16
2022-09-24T23:25:29.182Z,13.13
2022-09-24T23:28:36.168Z,13.18
2022-09-24T23:31:40.964Z,13.16
2022-09-24T23:34:46.404Z,13.18
2022-09-24T23:37:50.941Z,13.14
2022-09-24T23:40:56.169Z,13.14
2022-09-24T23:44:02.302Z,13.14
2022-09-24T23:47:06.557Z,13.06
2022-09-24T23:50:12.755Z,13.08
2022-09-24T23:53:18.837Z,13.02
2022-09-24T23:56:23.170Z,13.02
2022-09-24T23:59:28.646Z,13.02
